Time;durP1;ratioP1;P1;durP2;ratioP2;P2;SDS_P1;SDS_P2;PMS_P1;PMS_P2;Temp;Humidity;BMP_temperature;BMP_pressure;BME280_temperature;BME280_humidity;BME280_pressure;Samples;Min_cycle;Max_cycle;Signal;HPM_P1;HPM_P2
2021/12/23 00:00:12;;;;;;;51.50;23.25;;;;;;;-2.92;70.34;100885.66;5090327;28;20099;-38
2021/12/23 00:02:38;;;;;;;54.17;22.35;;;;;;;-2.77;70.63;100887.34;5090359;28;20462;-37
2021/12/23 00:05:08;;;;;;;53.53;22.67;;;;;;;-2.68;69.41;100882.56;5090641;28;20036;-38
2021/12/23 00:07:33;;;;;;;46.60;20.85;;;;;;;-2.48;69.01;100884.78;5090528;28;20120;-37
2021/12/23 00:10:06;;;;;;;52.67;21.73;;;;;;;-2.62;69.18;100885.63;5090612;28;20031;-37
2021/12/23 00:12:37;;;;;;;50.75;22.13;;;;;;;-2.93;70.38;100883.97;5090649;28;20028;-37
2021/12/23 00:15:05;;;;;;;53.22;22.20;;;;;;;-2.81;69.79;100885.03;5089900;28;20024;-37
2021/12/23 00:17:54;;;;;;;50.08;22.67;;;;;;;-2.91;70.51;100881.25;5090085;28;20038;-37
2021/12/23 00:25:34;;;;;;;52.50;21.10;;;;;;;-3.11;70.94;100882.44;5089991;28;20116;-38
2021/12/23 00:28:00;;;;;;;53.47;21.88;;;;;;;-3.03;71.04;100883.66;5089677;28;20515;-37
2021/12/23 00:30:25;;;;;;;57.60;22.27;;;;;;;-2.83;70.94;100889.50;5089683;28;20028;-37
2021/12/23 00:32:51;;;;;;;52.13;21.58;;;;;;;-3.07;70.79;100845.69;5089685;28;20028;-37
2021/12/23 00:35:16;;;;;;;57.92;21.67;;;;;;;-3.11;71.00;100880.66;5089699;28;20046;-37
2021/12/23 00:37:45;;;;;;;53.28;20.63;;;;;;;-2.84;70.37;100880.81;5089463;28;20661;-37
2021/12/23 00:40:12;;;;;;;56.38;21.75;;;;;;;-3.02;71.32;100879.31;5089318;28;20138;-38
2021/12/23 00:42:37;;;;;;;49.28;21.15;;;;;;;-3.35;72.19;100878.53;5089001;28;20028;-37
2021/12/23 00:45:04;;;;;;;55.15;23.90;;;;;;;-3.19;71.65;100872.44;5088990;28;20024;-37
2021/12/23 00:47:30;;;;;;;54.40;23.38;;;;;;;-3.09;70.61;100877.97;5089187;28;20056;-37
2021/12/23 00:49:56;;;;;;;60.65;24.08;;;;;;;-3.12;70.53;100871.19;5089228;28;20051;-37
2021/12/23 00:52:28;;;;;;;58.50;23.17;;;;;;;-3.21;71.17;100869.94;5089383;28;20455;-38
2021/12/23 00:54:54;;;;;;;56.22;23.98;;;;;;;-3.27;71.19;100864.25;5089567;28;20012;-38
2021/12/23 00:57:26;;;;;;;49.25;22.17;;;;;;;-3.11;69.84;100869.41;5089179;28;20039;-38
2021/12/23 00:59:51;;;;;;;54.03;22.88;;;;;;;-3.09;70.26;100872.75;5089649;28;20032;-38
2021/12/23 01:02:17;;;;;;;53.60;23.33;;;;;;;-3.27;71.75;100865.06;5089237;28;20108;-37
2021/12/23 01:04:43;;;;;;;58.65;24.65;;;;;;;-3.26;70.52;100871.94;5089744;28;20031;-37
2021/12/23 01:07:08;;;;;;;58.22;23.70;;;;;;;-3.35;71.13;100877.66;5089305;28;20056;-37
2021/12/23 01:09:34;;;;;;;54.55;22.65;;;;;;;-3.35;71.03;100873.31;5091602;28;20527;-37
2021/12/23 01:11:59;;;;;;;54.97;23.75;;;;;;;-3.12;71.48;100872.91;5096297;28;20095;-38
2021/12/23 01:14:28;;;;;;;57.17;22.58;;;;;;;-2.97;69.96;100869.44;5096045;28;20434;-37
2021/12/23 01:19:22;;;;;;;55.10;21.92;;;;;;;-2.88;68.59;100855.03;5096089;28;20043;-37
2021/12/23 01:21:48;;;;;;;56.72;22.80;;;;;;;-3.11;70.46;100861.59;5096127;28;20028;-38
2021/12/23 01:24:13;;;;;;;66.15;23.67;;;;;;;-3.03;70.12;100857.59;5096094;28;20024;-37
2021/12/23 01:26:39;;;;;;;52.72;22.98;;;;;;;-3.38;70.82;100846.63;5096169;28;20096;-37
2021/12/23 01:29:04;;;;;;;51.67;23.23;;;;;;;-3.32;70.95;100853.25;5096166;28;20028;-37
2021/12/23 01:31:30;;;;;;;54.85;23.35;;;;;;;-3.63;71.31;100853.19;5096670;28;20046;-37
2021/12/23 01:33:56;;;;;;;48.50;22.17;;;;;;;-3.43;71.04;100856.44;5096505;28;20039;-37
2021/12/23 01:36:25;;;;;;;58.38;23.80;;;;;;;-3.33;69.89;100852.41;5096638;28;20028;-38
2021/12/23 01:38:51;;;;;;;55.30;21.25;;;;;;;-3.37;70.05;100861.28;5095827;28;20020;-37
2021/12/23 01:41:16;;;;;;;60.67;24.60;;;;;;;-3.22;70.34;100862.19;5095845;28;20032;-38
2021/12/23 01:43:42;;;;;;;52.90;23.13;;;;;;;-3.31;70.27;100852.31;5096097;28;20095;-37
2021/12/23 01:46:08;;;;;;;59.83;23.75;;;;;;;-3.29;69.69;100851.31;5096234;28;20028;-37
2021/12/23 01:48:33;;;;;;;58.75;23.48;;;;;;;-3.20;70.68;100850.78;5096156;28;20059;-37
2021/12/23 01:50:59;;;;;;;56.97;23.23;;;;;;;-3.34;69.98;100848.13;5096275;28;20093;-37
2021/12/23 01:53:24;;;;;;;55.70;23.05;;;;;;;-3.23;69.74;100848.34;5096317;28;20032;-38
2021/12/23 01:55:50;;;;;;;52.53;22.20;;;;;;;-3.39;71.11;100843.19;5095995;28;20067;-38
2021/12/23 01:58:15;;;;;;;52.35;21.30;;;;;;;-3.34;72.25;100845.50;5095946;28;20024;-37
2021/12/23 02:00:46;;;;;;;53.42;22.55;;;;;;;-3.15;72.08;100842.69;5095683;28;20028;-37
2021/12/23 02:03:12;;;;;;;50.83;21.95;;;;;;;-3.27;70.99;100839.03;5095893;28;20376;-37
2021/12/23 02:05:37;;;;;;;49.53;20.50;;;;;;;-3.59;72.72;100838.25;5095766;28;20440;-37
2021/12/23 02:08:03;;;;;;;50.53;21.65;;;;;;;-3.44;72.11;100837.38;5095887;28;20575;-37
2021/12/23 02:10:29;;;;;;;50.10;22.02;;;;;;;-3.48;72.13;100833.28;5095906;28;20130;-38
2021/12/23 02:12:54;;;;;;;51.05;21.65;;;;;;;-3.50;71.29;100827.34;5096132;28;20028;-37
2021/12/23 02:15:20;;;;;;;50.58;20.85;;;;;;;-3.44;72.08;100829.59;5095933;28;20082;-37
2021/12/23 02:17:46;;;;;;;57.38;21.88;;;;;;;-3.82;72.02;100832.56;5095890;28;20073;-36
2021/12/23 02:20:17;;;;;;;55.65;22.73;;;;;;;-3.72;72.51;100824.25;5095446;28;20039;-37
2021/12/23 02:22:42;;;;;;;56.78;22.95;;;;;;;-3.64;72.03;100835.88;5091761;28;20107;-37
2021/12/23 02:25:09;;;;;;;52.17;21.80;;;;;;;-3.68;71.59;100829.19;5092732;28;20444;-38
2021/12/23 02:27:34;;;;;;;57.45;24.27;;;;;;;-3.80;71.99;100832.47;5092915;28;20035;-37
2021/12/23 02:30:00;;;;;;;54.50;23.48;;;;;;;-3.80;73.20;100838.50;5093167;28;20027;-37
2021/12/23 02:32:26;;;;;;;54.47;23.83;;;;;;;-3.66;72.07;100839.50;5092881;28;20031;-37
2021/12/23 02:34:51;;;;;;;55.78;22.98;;;;;;;-3.73;72.77;100839.03;5092879;28;20028;-37
2021/12/23 02:37:17;;;;;;;50.15;20.98;;;;;;;-3.86;73.16;100832.81;5092805;28;20118;-37
2021/12/23 02:39:42;;;;;;;56.58;23.25;;;;;;;-3.91;72.88;100840.03;5092694;28;20066;-37
2021/12/23 02:42:08;;;;;;;57.05;23.95;;;;;;;-3.94;73.07;100839.28;5092734;28;20464;-37
2021/12/23 02:44:33;;;;;;;52.67;21.27;;;;;;;-3.77;71.82;100842.69;5092651;28;20023;-37
2021/12/23 02:46:59;;;;;;;61.20;23.63;;;;;;;-3.87;72.54;100837.16;5090988;28;20024;-38
2021/12/23 02:49:24;;;;;;;50.38;20.80;;;;;;;-3.95;73.21;100840.19;5092695;28;20047;-38
2021/12/23 02:51:50;;;;;;;49.85;21.25;;;;;;;-4.07;72.76;100832.19;5092670;28;20032;-37
2021/12/23 02:54:15;;;;;;;56.70;23.52;;;;;;;-4.15;73.51;100832.63;5092303;28;20420;-37
2021/12/23 02:56:41;;;;;;;52.80;23.15;;;;;;;-4.13;73.97;100826.44;5092318;28;20024;-38
2021/12/23 02:59:06;;;;;;;54.92;22.58;;;;;;;-4.09;72.27;100831.44;5092812;28;20020;-38
2021/12/23 03:01:32;;;;;;;51.10;21.58;;;;;;;-4.29;72.85;100828.16;5092368;28;20020;-38
2021/12/23 03:03:59;;;;;;;55.97;22.30;;;;;;;-4.46;73.80;100829.06;5092162;28;20035;-38
2021/12/23 03:06:25;;;;;;;62.92;23.23;;;;;;;-4.30;73.27;100830.84;5092007;28;20055;-37
2021/12/23 03:08:56;;;;;;;56.55;23.20;;;;;;;-4.33;73.22;100834.44;5092146;28;20043;-37
2021/12/23 03:11:23;;;;;;;61.85;25.35;;;;;;;-4.48;73.70;100833.50;5092117;28;20058;-37
2021/12/23 03:13:48;;;;;;;57.10;24.40;;;;;;;-4.50;73.98;100831.91;5091773;28;20093;-37
2021/12/23 03:16:14;;;;;;;60.40;24.00;;;;;;;-4.56;73.40;100838.25;5091766;28;20452;-37
2021/12/23 03:18:40;;;;;;;71.40;26.70;;;;;;;-4.51;74.14;100844.06;5091438;28;20073;-37
2021/12/23 03:21:06;;;;;;;65.32;24.75;;;;;;;-4.43;73.02;100851.47;5091387;28;20028;-37
2021/12/23 03:23:32;;;;;;;62.03;27.08;;;;;;;-4.49;73.36;100850.00;5091341;28;20636;-37
2021/12/23 03:25:58;;;;;;;61.78;25.40;;;;;;;-4.33;73.55;100852.63;5085392;28;20020;-37
2021/12/23 03:28:23;;;;;;;60.70;23.60;;;;;;;-4.27;71.87;100847.13;5084872;28;20030;-37
2021/12/23 03:30:49;;;;;;;65.53;25.52;;;;;;;-4.37;72.83;100851.97;5090923;28;20103;-38
2021/12/23 03:33:14;;;;;;;55.88;24.85;;;;;;;-4.54;73.43;100855.44;5091346;28;20442;-38
2021/12/23 03:35:40;;;;;;;62.70;25.92;;;;;;;-4.39;72.87;100851.19;5091264;28;20411;-37
2021/12/23 03:38:05;;;;;;;58.05;24.30;;;;;;;-4.52;73.09;100852.75;5091230;28;20020;-37
2021/12/23 03:40:31;;;;;;;65.78;25.83;;;;;;;-4.52;72.98;100857.97;5091447;28;20080;-37
2021/12/23 03:42:57;;;;;;;58.47;24.80;;;;;;;-4.36;72.80;100848.47;5091043;28;20067;-37
2021/12/23 03:45:22;;;;;;;68.80;24.98;;;;;;;-4.42;72.65;100856.53;5089689;28;20039;-37
2021/12/23 03:47:50;;;;;;;60.33;24.13;;;;;;;-4.44;73.52;100862.75;5091056;28;20136;-37
2021/12/23 03:50:20;;;;;;;62.08;25.55;;;;;;;-4.45;73.05;100851.53;5090777;28;20036;-37
2021/12/23 03:52:45;;;;;;;61.42;24.70;;;;;;;-4.19;71.58;100852.75;5090747;28;20028;-37
2021/12/23 03:55:11;;;;;;;61.20;24.42;;;;;;;-4.09;71.86;100860.03;5090760;28;20103;-37
2021/12/23 03:57:36;;;;;;;50.83;23.20;;;;;;;-4.11;72.38;100867.97;5090674;28;20028;-37
2021/12/23 04:00:04;;;;;;;58.22;25.15;;;;;;;-4.04;71.64;100868.44;5090989;28;20036;-37
2021/12/23 04:02:30;;;;;;;58.85;24.63;;;;;;;-3.98;71.41;100863.78;5091189;28;20052;-37
2021/12/23 04:04:55;;;;;;;56.22;23.60;;;;;;;-4.09;71.04;100876.50;5091253;28;20452;-37
2021/12/23 04:07:21;;;;;;;100.07;40.78;;;;;;;-4.08;71.80;100878.16;5090776;28;20059;-37
2021/12/23 04:09:46;;;;;;;85.10;32.22;;;;;;;-4.26;73.47;100876.56;5090969;28;20039;-37
2021/12/23 04:12:12;;;;;;;119.63;42.65;;;;;;;-4.35;73.21;100878.72;5090901;28;20369;-37
2021/12/23 04:14:37;;;;;;;85.78;33.08;;;;;;;-4.28;73.70;100878.38;5090874;28;20084;-36
2021/12/23 04:17:03;;;;;;;52.10;21.42;;;;;;;-4.24;72.87;100877.31;5090991;28;20035;-37
2021/12/23 04:19:31;;;;;;;46.20;19.60;;;;;;;-4.20;72.90;100887.47;5091045;28;20035;-36
2021/12/23 04:21:57;;;;;;;52.92;22.13;;;;;;;-4.27;72.52;100885.28;5090772;28;20027;-37
2021/12/23 04:24:23;;;;;;;50.55;21.70;;;;;;;-4.18;71.83;100884.78;5090749;28;20574;-36
2021/12/23 04:26:48;;;;;;;41.72;19.10;;;;;;;-4.16;72.59;100888.97;5090741;28;20506;-37
2021/12/23 04:29:14;;;;;;;43.58;18.33;;;;;;;-4.19;72.52;100883.97;5090599;28;20023;-37
2021/12/23 04:31:39;;;;;;;50.10;21.15;;;;;;;-4.36;72.68;100884.84;5090664;28;20031;-37
2021/12/23 04:34:05;;;;;;;43.00;18.70;;;;;;;-4.39;72.95;100892.78;5090875;28;20027;-37
2021/12/23 04:36:30;;;;;;;63.67;25.48;;;;;;;-4.61;73.72;100895.63;5090483;28;20032;-37
2021/12/23 04:38:58;;;;;;;43.83;19.60;;;;;;;-4.42;73.94;100884.31;5090451;28;20032;-37
2021/12/23 04:41:24;;;;;;;41.40;18.45;;;;;;;-4.25;72.39;100880.84;5090078;28;20456;-37
2021/12/23 04:43:49;;;;;;;39.70;18.15;;;;;;;-4.22;72.20;100885.88;5090040;28;20035;-38
2021/12/23 04:46:14;;;;;;;45.40;18.88;;;;;;;-4.38;73.21;100875.44;5090426;28;20128;-38
2021/12/23 04:48:40;;;;;;;39.08;17.30;;;;;;;-4.37;71.74;100883.16;5089746;28;20185;-38
2021/12/23 04:51:05;;;;;;;36.88;17.45;;;;;;;-4.38;71.77;100875.44;5089481;28;20024;-37
2021/12/23 04:53:31;;;;;;;41.25;18.27;;;;;;;-4.37;71.80;100883.16;5089706;28;20486;-37
2021/12/23 04:55:56;;;;;;;49.75;20.17;;;;;;;-4.55;73.20;100871.97;5089553;28;20028;-38
2021/12/23 04:58:22;;;;;;;52.25;22.58;;;;;;;-4.43;73.04;100878.28;5088415;28;20024;-38
2021/12/23 05:00:49;;;;;;;44.28;19.70;;;;;;;-4.52;73.36;100874.38;5090014;28;20032;-38
2021/12/23 05:03:15;;;;;;;53.05;21.17;;;;;;;-4.76;74.28;100870.44;5089829;28;20020;-37
2021/12/23 05:05:41;;;;;;;44.50;20.30;;;;;;;-4.75;74.44;100872.13;5089083;28;20052;-37
2021/12/23 05:08:06;;;;;;;44.92;18.13;;;;;;;-4.69;73.36;100868.38;5088998;28;20422;-37
2021/12/23 05:10:32;;;;;;;36.85;16.80;;;;;;;-4.49;73.25;100869.94;5088925;28;20456;-38
2021/12/23 05:12:58;;;;;;;39.15;17.95;;;;;;;-4.52;72.97;100865.75;5089825;28;20031;-38
2021/12/23 05:15:24;;;;;;;44.75;18.63;;;;;;;-4.51;72.81;100870.03;5089281;28;20039;-37
2021/12/23 05:17:49;;;;;;;48.28;20.55;;;;;;;-4.64;73.11;100861.19;5089316;28;20016;-37
2021/12/23 05:20:16;;;;;;;42.22;18.75;;;;;;;-4.81;74.56;100865.47;5089644;28;20024;-38
2021/12/23 05:22:41;;;;;;;44.85;19.55;;;;;;;-4.75;73.38;100878.16;5089274;28;20123;-37
2021/12/23 05:25:07;;;;;;;50.83;20.58;;;;;;;-4.72;72.90;100872.81;5088882;28;20027;-37
2021/12/23 05:27:33;;;;;;;49.15;22.92;;;;;;;-4.78;73.62;100870.53;5089610;28;20023;-38
2021/12/23 05:29:58;;;;;;;49.25;22.00;;;;;;;-4.91;74.04;100883.28;5089257;28;20167;-36
2021/12/23 05:32:24;;;;;;;51.30;20.83;;;;;;;-4.97;75.05;100886.19;5089402;28;20020;-37
2021/12/23 05:34:49;;;;;;;49.05;21.80;;;;;;;-4.96;75.20;100876.66;5089221;28;20024;-37
2021/12/23 05:37:15;;;;;;;52.35;21.80;;;;;;;-4.81;74.15;100882.84;5089597;28;20036;-37
2021/12/23 05:39:40;;;;;;;50.60;19.92;;;;;;;-5.08;75.07;100835.69;5087915;28;20031;-37
2021/12/23 05:42:06;;;;;;;50.67;21.42;;;;;;;-4.82;73.82;100881.97;5068573;28;20123;-39
2021/12/23 05:44:32;;;;;;;56.20;23.70;;;;;;;-4.77;73.54;100874.81;5076600;28;20035;-38
2021/12/23 05:46:57;;;;;;;59.58;25.23;;;;;;;-4.90;73.79;100878.94;5087261;28;20032;-37
2021/12/23 05:49:22;;;;;;;80.47;31.75;;;;;;;-5.00;74.62;100880.31;5088206;28;20028;-37
2021/12/23 05:51:48;;;;;;;47.35;21.42;;;;;;;-4.30;83.55;100883.69;5088410;28;20089;-37
2021/12/23 05:54:13;;;;;;;54.35;24.23;;;;;;;-4.75;74.23;100891.16;5088116;28;20028;-37
2021/12/23 05:56:39;;;;;;;40.67;18.98;;;;;;;-5.11;73.82;100892.03;5089018;28;20089;-37
2021/12/23 05:59:04;;;;;;;41.85;19.20;;;;;;;-4.90;75.00;100889.31;5092233;28;20024;-37
2021/12/23 06:01:30;;;;;;;46.83;20.33;;;;;;;-4.91;75.95;100880.69;5091703;28;20062;-37
2021/12/23 06:03:56;;;;;;;53.80;21.10;;;;;;;-4.89;74.96;100893.59;5082138;28;20067;-37
2021/12/23 06:06:21;;;;;;;136.43;44.17;;;;;;;-4.68;76.35;100896.03;5071984;28;20052;-37
2021/12/23 06:08:47;;;;;;;55.35;22.15;;;;;;;-4.32;78.38;100899.34;5071841;28;20571;-37
2021/12/23 06:11:12;;;;;;;53.28;22.63;;;;;;;-3.84;78.80;100906.41;5071510;28;20025;-37
2021/12/23 06:13:38;;;;;;;53.85;22.10;;;;;;;-3.30;77.83;100899.09;5084251;28;20043;-37
2021/12/23 06:16:03;;;;;;;53.33;22.90;;;;;;;-3.17;69.95;100902.66;5071573;28;20100;-38
2021/12/23 06:18:29;;;;;;;52.25;22.80;;;;;;;-3.35;68.38;100898.50;5072944;28;20520;-38
2021/12/23 06:20:54;;;;;;;53.30;23.27;;;;;;;-3.41;69.74;100906.66;5090952;28;20104;-38
2021/12/23 06:23:20;;;;;;;58.42;23.83;;;;;;;-3.32;69.39;100907.91;5091773;28;20035;-38
2021/12/23 06:25:45;;;;;;;51.88;24.27;;;;;;;-3.20;69.42;100915.88;5091629;28;20047;-39
2021/12/23 06:28:11;;;;;;;55.25;24.58;;;;;;;-3.10;68.46;100913.59;5091461;28;20035;-38
2021/12/23 06:30:37;;;;;;;55.70;25.52;;;;;;;-2.83;68.83;100916.38;5091399;28;20693;-39
2021/12/23 06:33:02;;;;;;;52.33;22.80;;;;;;;-2.77;68.42;100921.22;5090696;28;20027;-37
2021/12/23 06:35:29;;;;;;;54.90;23.45;;;;;;;-2.71;68.20;100921.81;5090099;28;20114;-37
2021/12/23 06:37:54;;;;;;;52.40;23.25;;;;;;;-2.75;68.27;100929.78;5090331;28;20020;-38
2021/12/23 06:40:20;;;;;;;51.78;23.83;;;;;;;-2.75;67.15;100903.75;5090004;28;20034;-37
2021/12/23 06:42:46;;;;;;;59.47;24.27;;;;;;;-2.43;69.00;100931.47;5089903;28;20023;-38
2021/12/23 06:45:11;;;;;;;62.13;23.42;;;;;;;-2.24;67.59;100937.25;5089420;28;20024;-37
2021/12/23 06:47:37;;;;;;;54.15;23.17;;;;;;;-2.08;67.76;100937.16;5089744;28;20028;-38
2021/12/23 06:50:04;;;;;;;50.47;23.48;;;;;;;-1.81;66.20;100944.25;5089827;28;20411;-37
2021/12/23 06:52:30;;;;;;;53.00;24.98;;;;;;;-1.64;66.77;100945.81;5090673;28;20475;-37
2021/12/23 06:54:57;;;;;;;59.90;26.13;;;;;;;-1.42;64.43;100933.09;5072489;28;20081;-38
2021/12/23 06:57:23;;;;;;;61.95;27.88;;;;;;;-1.49;66.11;100938.81;5090711;28;20039;-38
2021/12/23 06:59:49;;;;;;;55.92;28.02;;;;;;;-1.49;64.69;100936.19;5090713;28;20378;-39
2021/12/23 07:02:15;;;;;;;62.42;29.20;;;;;;;-1.45;64.72;100929.84;5090518;28;20031;-38
2021/12/23 07:04:42;;;;;;;66.43;30.35;;;;;;;-1.15;64.85;100927.03;5091290;28;20028;-38
2021/12/23 07:07:11;;;;;;;64.90;30.17;;;;;;;-0.61;62.54;100928.75;5089953;28;20546;-38
2021/12/23 07:09:40;;;;;;;66.32;31.67;;;;;;;-0.45;60.42;100921.56;5090752;28;20074;-38
2021/12/23 07:12:06;;;;;;;61.28;28.98;;;;;;;-0.34;59.63;100922.59;5091619;28;20039;-38
2021/12/23 07:14:32;;;;;;;61.55;28.08;;;;;;;-0.57;61.44;100922.38;5089774;28;20020;-37
2021/12/23 07:16:57;;;;;;;56.35;25.77;;;;;;;0.65;67.10;100924.41;5089969;28;20035;-38
2021/12/23 07:19:23;;;;;;;50.55;24.88;;;;;;;0.89;61.81;100927.88;5085589;28;20027;-39
2021/12/23 07:21:48;;;;;;;45.70;21.90;;;;;;;1.72;62.04;100939.25;5090114;28;20148;-39
2021/12/23 07:24:14;;;;;;;49.55;22.83;;;;;;;2.19;59.60;100941.78;5090525;28;20020;-39
2021/12/23 07:26:39;;;;;;;50.15;23.13;;;;;;;3.00;59.57;100937.94;5088575;28;20024;-39
2021/12/23 07:29:04;;;;;;;46.08;22.85;;;;;;;3.39;50.28;100934.75;5088396;28;20099;-39
2021/12/23 07:31:30;;;;;;;43.78;23.15;;;;;;;3.86;49.80;100933.41;5090275;28;20081;-39
2021/12/23 07:33:55;;;;;;;42.70;22.92;;;;;;;3.19;48.93;100936.44;5090203;28;20043;-40
2021/12/23 07:36:22;;;;;;;50.75;25.08;;;;;;;2.98;49.28;100944.28;5088499;28;21238;-39
2021/12/23 07:38:48;;;;;;;47.45;24.25;;;;;;;2.07;51.77;100943.56;5088525;28;20011;-39
2021/12/23 07:41:14;;;;;;;50.03;24.67;;;;;;;2.12;51.47;100938.81;5089198;28;20068;-39
2021/12/23 07:46:05;;;;;;;50.58;24.92;;;;;;;1.51;51.24;100939.94;5090512;28;20604;-39
2021/12/23 07:48:31;;;;;;;49.53;25.27;;;;;;;1.65;51.26;100938.03;5090542;28;20033;-38
2021/12/23 07:50:57;;;;;;;47.92;24.80;;;;;;;1.59;52.04;100941.13;5090559;28;20024;-40
2021/12/23 07:53:22;;;;;;;49.45;24.30;;;;;;;1.44;52.94;100940.50;5090343;28;20059;-39
2021/12/23 07:55:48;;;;;;;53.45;25.63;;;;;;;1.69;51.85;100936.84;5090138;28;20052;-39
2021/12/23 07:58:13;;;;;;;49.00;24.90;;;;;;;1.63;51.95;100938.16;5090185;28;20126;-38
2021/12/23 08:00:39;;;;;;;53.00;26.83;;;;;;;1.94;51.32;100928.78;5090078;28;20395;-38
2021/12/23 08:03:04;;;;;;;56.78;29.13;;;;;;;1.92;51.70;100935.09;5089575;28;20020;-38
2021/12/23 08:05:36;;;;;;;55.15;26.85;;;;;;;2.23;51.39;100936.19;5089347;28;20055;-38
2021/12/23 08:08:02;;;;;;;47.47;25.13;;;;;;;2.04;50.67;100935.97;5089803;28;20504;-38
2021/12/23 08:10:27;;;;;;;48.95;25.13;;;;;;;2.20;50.56;100925.91;5089725;28;20024;-38
2021/12/23 08:12:54;;;;;;;54.75;25.63;;;;;;;2.06;50.90;100926.16;5089729;28;20028;-38
2021/12/23 08:15:19;;;;;;;126.85;56.60;;;;;;;2.37;49.61;100927.22;5089122;28;20108;-38
2021/12/23 08:17:45;;;;;;;48.00;24.65;;;;;;;2.58;48.37;100922.03;5087839;28;20071;-39
2021/12/23 08:20:11;;;;;;;46.78;22.92;;;;;;;2.58;48.55;100916.78;5088109;28;20028;-38
2021/12/23 08:22:37;;;;;;;50.60;23.60;;;;;;;2.52;48.80;100922.53;5089107;28;20032;-38
2021/12/23 08:25:03;;;;;;;50.17;24.27;;;;;;;2.05;49.90;100911.34;5088922;28;20380;-39
2021/12/23 08:27:30;;;;;;;45.35;23.60;;;;;;;1.95;49.20;100887.59;5089066;28;20016;-37
2021/12/23 08:29:56;;;;;;;52.03;23.48;;;;;;;2.02;48.77;100915.06;5088924;28;20028;-37
2021/12/23 08:32:21;;;;;;;51.83;23.70;;;;;;;2.28;49.42;100920.06;5088976;28;20043;-38
2021/12/23 08:34:47;;;;;;;56.47;24.33;;;;;;;2.41;49.04;100918.13;5089145;28;20494;-38
2021/12/23 08:37:12;;;;;;;49.08;24.85;;;;;;;2.59;48.95;100915.84;5089262;28;20401;-39
2021/12/23 08:39:39;;;;;;;51.08;26.25;;;;;;;2.68;48.55;100916.88;5089284;28;20039;-39
2021/12/23 08:42:05;;;;;;;43.10;23.08;;;;;;;2.90;47.55;100908.91;5088941;28;20076;-38
2021/12/23 08:44:30;;;;;;;42.40;22.52;;;;;;;2.82;47.29;100908.72;5089249;28;20539;-39
2021/12/23 08:46:55;;;;;;;43.08;23.73;;;;;;;3.01;47.23;100909.81;5089318;28;20073;-38
2021/12/23 08:49:21;;;;;;;44.92;23.25;;;;;;;3.08;47.02;100908.38;5089515;28;20025;-38
2021/12/23 08:51:46;;;;;;;43.65;22.77;;;;;;;3.01;47.21;100908.06;5089484;28;20032;-38
2021/12/23 08:54:12;;;;;;;45.95;21.92;;;;;;;3.42;45.60;100900.31;5087759;28;20020;-38
2021/12/23 08:56:39;;;;;;;38.17;20.02;;;;;;;3.28;45.07;100897.03;5089236;28;20035;-39
2021/12/23 08:59:04;;;;;;;33.15;18.50;;;;;;;3.33;45.10;100894.00;5089352;28;20157;-38
2021/12/23 09:01:30;;;;;;;29.15;13.90;;;;;;;3.20;44.83;100894.22;5089342;28;20108;-38
2021/12/23 09:03:55;;;;;;;22.40;10.80;;;;;;;3.46;43.68;100883.28;5087990;28;20452;-39
2021/12/23 09:06:21;;;;;;;21.33;9.63;;;;;;;3.19;43.09;100878.56;5089317;28;20067;-38
2021/12/23 09:08:46;;;;;;;22.55;10.55;;;;;;;3.43;42.70;100879.13;5089243;28;20031;-38
2021/12/23 09:11:12;;;;;;;17.77;9.57;;;;;;;3.35;42.24;100878.97;5089256;28;20328;-38
2021/12/23 09:13:37;;;;;;;19.45;10.32;;;;;;;3.56;42.95;100876.31;5088979;28;20035;-38
2021/12/23 09:16:03;;;;;;;20.13;9.60;;;;;;;3.64;43.38;100865.94;5089413;28;20031;-39
2021/12/23 09:18:28;;;;;;;24.65;12.40;;;;;;;3.75;43.33;100872.94;5088983;28;20048;-38
2021/12/23 09:20:54;;;;;;;21.05;10.05;;;;;;;3.64;42.94;100863.31;5089325;28;20023;-38
2021/12/23 09:23:20;;;;;;;19.20;9.68;;;;;;;3.75;42.55;100861.56;5089316;28;20055;-39
2021/12/23 09:25:47;;;;;;;18.10;8.57;;;;;;;3.71;42.65;100853.06;5089117;28;20038;-39
2021/12/23 09:33:25;;;;;;;16.60;9.48;;;;;;;4.20;42.21;100838.28;5093437;28;20116;-39
2021/12/23 09:35:50;;;;;;;17.02;9.20;;;;;;;4.06;42.64;100834.22;5092326;28;20020;-39
2021/12/23 09:38:16;;;;;;;16.85;9.90;;;;;;;4.10;42.73;100837.44;5092656;28;20171;-39
2021/12/23 09:40:42;;;;;;;19.85;10.07;;;;;;;4.24;42.51;100825.66;5092572;28;20024;-39
2021/12/23 09:43:09;;;;;;;18.75;9.68;;;;;;;4.29;42.36;100821.66;5092204;28;20040;-39
2021/12/23 09:45:35;;;;;;;16.50;10.27;;;;;;;4.23;42.13;100821.38;5091633;28;20087;-39
2021/12/23 09:48:04;;;;;;;19.13;10.35;;;;;;;4.20;42.54;100819.00;5091960;28;20173;-39
2021/12/23 09:50:32;;;;;;;19.70;9.20;;;;;;;3.98;41.52;100785.81;5091843;28;20020;-38
2021/12/23 09:52:57;;;;;;;17.60;8.90;;;;;;;3.58;43.52;100816.47;5091574;28;20024;-38
2021/12/23 09:55:25;;;;;;;14.75;9.05;;;;;;;3.86;42.59;100811.44;5073738;28;20447;-39
2021/12/23 09:57:51;;;;;;;14.90;9.15;;;;;;;3.48;43.68;100807.66;5092450;28;20024;-38
2021/12/23 10:00:18;;;;;;;15.15;9.13;;;;;;;3.69;43.24;100803.22;5091940;28;20020;-39
2021/12/23 10:02:43;;;;;;;20.63;8.93;;;;;;;4.13;41.62;100792.34;5092121;28;20028;-39
2021/12/23 10:05:10;;;;;;;18.35;9.45;;;;;;;3.78;42.31;100798.09;5092251;28;20149;-38
2021/12/23 10:07:36;;;;;;;17.48;9.18;;;;;;;3.47;43.43;100790.22;5091140;28;20036;-38
2021/12/23 10:10:14;;;;;;;19.13;9.60;;;;;;;3.61;42.57;100786.41;5091270;28;20019;-39
2021/12/23 10:31:59;;;;;;;15.30;9.13;;;;;;;4.29;41.92;100739.97;5091162;28;20027;-38
2021/12/23 10:37:15;;;;;;;22.55;9.85;;;;;;;4.10;42.43;100734.69;5090948;28;19976;-39
2021/12/23 10:39:52;;;;;;;19.88;9.80;;;;;;;3.76;43.29;100734.22;5090812;28;20102;-39
2021/12/23 10:42:23;;;;;;;21.10;9.82;;;;;;;4.23;41.51;100732.63;5089780;28;20099;-39
2021/12/23 10:44:52;;;;;;;18.08;10.02;;;;;;;4.00;42.01;100732.03;5089315;28;20103;-38
2021/12/23 10:48:03;;;;;;;23.02;9.73;;;;;;;4.18;42.44;100723.47;5090762;28;20161;-39
2021/12/23 10:53:03;;;;;;;21.92;10.38;;;;;;;4.22;41.94;100728.31;5090954;28;20110;-39
2021/12/23 10:58:15;;;;;;;17.52;9.60;;;;;;;3.64;42.40;100712.44;5090613;28;20038;-39
2021/12/23 11:00:41;;;;;;;19.05;10.02;;;;;;;4.41;41.78;100711.66;5090997;28;20092;-39
2021/12/23 11:03:41;;;;;;;20.70;9.73;;;;;;;4.66;40.84;100712.91;5091385;28;20028;-38
2021/12/23 11:43:55;;;;;;;33.88;14.05;;;;;;;4.20;42.80;100659.09;5090592;28;20047;-40
2021/12/23 11:46:23;;;;;;;;;;;;;;;4.19;41.80;100656.59;5090520;28;20032;-39
2021/12/23 11:48:52;;;;;;;26.48;12.43;;;;;;;4.37;40.97;100662.00;5090656;28;20341;-39
2021/12/23 11:51:29;;;;;;;23.00;12.68;;;;;;;4.43;41.53;100656.16;5090743;28;20157;-39
2021/12/23 11:53:55;;;;;;;25.38;12.80;;;;;;;3.87;42.67;100655.09;5090480;28;20044;-39
2021/12/23 11:56:21;;;;;;;31.23;13.68;;;;;;;4.01;42.34;100645.94;5090766;28;20036;-40
2021/12/23 11:58:48;;;;;;;20.45;12.25;;;;;;;4.60;41.67;100657.25;5090781;28;20137;-39
2021/12/23 12:01:14;;;;;;;28.42;13.23;;;;;;;4.10;41.24;100621.41;5089570;28;20063;-39
2021/12/23 12:03:54;;;;;;;24.98;12.70;;;;;;;4.42;41.01;100647.44;5090680;28;20111;-38
2021/12/23 12:06:42;;;;;;;26.05;12.75;;;;;;;4.42;41.92;100647.44;5090635;28;20500;-39
2021/12/23 12:09:19;;;;;;;29.67;12.82;;;;;;;4.00;41.98;100646.91;5090624;28;20053;-39
2021/12/23 12:12:08;;;;;;;22.48;12.15;;;;;;;3.81;41.94;100650.34;5090616;28;20024;-38
2021/12/23 12:14:38;;;;;;;26.65;13.02;;;;;;;3.75;42.42;100653.53;5085338;28;20074;-39
2021/12/23 12:17:25;;;;;;;22.83;11.40;;;;;;;4.09;40.85;100648.72;5090758;28;20035;-39
2021/12/23 12:20:22;;;;;;;21.15;11.23;;;;;;;4.11;40.91;100641.50;5090835;28;20332;-39
2021/12/23 12:22:51;;;;;;;20.05;11.00;;;;;;;4.18;40.06;100639.16;5090053;28;20590;-38
2021/12/23 12:25:26;;;;;;;19.95;10.55;;;;;;;3.64;41.15;100636.91;5090872;28;20055;-40
2021/12/23 12:28:12;;;;;;;21.63;11.07;;;;;;;3.87;41.11;100632.22;5090320;28;20028;-39
2021/12/23 12:30:55;;;;;;;21.17;11.15;;;;;;;3.88;40.92;100628.63;5089249;28;20039;-39